MUCL

Vilo Acuña Airport

Airport
ICAO code
MUCL
IATA Code
CYO
Summary
ICAO Region
CARSAM
ICAO Territory
Location

Cayo Largo del Sur, Isla de la Juventud

Serving
Cayo Largo del Sur
Elevation
10 ft
Coordinates
21° 36' 57" N , 81° 32' 44" W
KCC
Airport BS
Bird Strike
Metar
Observation
MUCL 080750Z AUTO 07009KT 040V110 24/18 Q1019
Station
Cayo Largo Del Sur
Date/Time
2022-12-08 07:50:00
Wind direction
70°
Wind speed
09 kts
Lowest cloud amount
n/a
Temperature
24°C
Dew point
18°C
Humidity
69%
QNH
1019 hPa
Weather condition
n/a

International airport serving the resort island of Cayo Largo del Sur, Cuba.

Climatology

Tropical Savanna climate (Köppen climate classification Aw)

Runways

Designator Length Width Surface Rops
12/30 3008 45 ASP No/No

Airport map

Aerial View

SKYbrary Partners:

Safety knowledge contributed by: